Time;durP1;ratioP1;P1;durP2;ratioP2;P2;SDS_P1;SDS_P2;PMS_P1;PMS_P2;Temp;Humidity;BMP_temperature;BMP_pressure;BME280_temperature;BME280_humidity;BME280_pressure;Samples;Min_cycle;Max_cycle;Signal;HPM_P1;HPM_P2
2021/08/23 00:01:02;;;;;;;17.85;11.75;;;15.30;99.90;;;;;;5071649;28;20031;-74
2021/08/23 00:03:27;;;;;;;16.20;12.48;;;15.10;99.90;;;;;;5071655;28;20064;-74
2021/08/23 00:05:53;;;;;;;21.00;12.60;;;15.00;99.90;;;;;;5071136;28;20028;-74
2021/08/23 00:08:19;;;;;;;15.45;10.80;;;15.00;99.90;;;;;;5071572;28;20497;-74
2021/08/23 00:10:45;;;;;;;19.17;12.25;;;14.90;99.90;;;;;;5070168;28;20032;-75
2021/08/23 00:13:10;;;;;;;18.42;12.88;;;15.00;99.90;;;;;;5071801;28;20032;-75
2021/08/23 00:15:38;;;;;;;17.15;11.77;;;15.00;99.90;;;;;;5077902;28;20104;-74
2021/08/23 00:18:04;;;;;;;15.68;12.07;;;15.00;99.90;;;;;;5088508;28;20048;-74
2021/08/23 00:20:50;;;;;;;15.75;12.23;;;14.90;99.90;;;;;;5094996;28;20544;-73
2021/08/23 00:23:16;;;;;;;14.07;11.85;;;14.90;99.90;;;;;;5097620;28;20558;-73
2021/08/23 00:25:42;;;;;;;14.20;10.93;;;14.90;99.90;;;;;;5094026;28;20111;-73
2021/08/23 00:28:08;;;;;;;16.70;11.27;;;15.00;99.90;;;;;;5098384;28;20020;-74
2021/08/23 00:30:35;;;;;;;16.95;11.52;;;15.10;99.90;;;;;;5088964;28;20019;-75
2021/08/23 00:33:01;;;;;;;13.35;10.23;;;15.10;99.90;;;;;;5095515;28;20104;-74
2021/08/23 00:35:27;;;;;;;14.18;11.00;;;15.10;99.90;;;;;;5071270;28;20103;-74
2021/08/23 00:37:53;;;;;;;15.73;10.85;;;15.20;99.90;;;;;;5071123;28;20436;-74
2021/08/23 00:40:18;;;;;;;14.98;11.65;;;15.30;99.90;;;;;;5071401;28;20020;-74
2021/08/23 00:42:44;;;;;;;14.30;10.90;;;15.20;99.90;;;;;;5071212;28;20650;-74
2021/08/23 00:45:10;;;;;;;13.20;10.85;;;15.10;99.90;;;;;;5071081;28;20016;-74
2021/08/23 00:47:35;;;;;;;17.80;12.30;;;15.20;99.90;;;;;;5071185;28;20032;-74
2021/08/23 00:50:03;;;;;;;18.83;11.55;;;15.10;99.90;;;;;;5071259;28;20284;-74
2021/08/23 00:52:28;;;;;;;14.52;12.13;;;15.10;99.90;;;;;;5069428;28;20478;-74
2021/08/23 00:54:54;;;;;;;15.32;12.07;;;15.10;99.90;;;;;;5071003;28;20107;-74
2021/08/23 00:57:20;;;;;;;18.20;13.38;;;15.10;99.90;;;;;;5069808;28;20111;-74
2021/08/23 00:59:46;;;;;;;14.18;12.05;;;14.90;99.90;;;;;;5071074;28;20024;-74
2021/08/23 01:02:12;;;;;;;15.25;11.93;;;14.90;99.90;;;;;;5071003;28;20032;-74
2021/08/23 01:04:56;;;;;;;15.23;12.82;;;14.90;99.90;;;;;;5070957;28;20025;-74
2021/08/23 01:07:26;;;;;;;16.45;12.45;;;14.90;99.90;;;;;;5069663;28;20383;-74
2021/08/23 01:10:02;;;;;;;16.08;12.65;;;15.00;99.90;;;;;;5093801;28;20023;-74
2021/08/23 01:12:28;;;;;;;15.45;12.13;;;14.90;99.90;;;;;;5088449;28;20482;-75
2021/08/23 01:14:54;;;;;;;17.02;12.63;;;14.80;99.90;;;;;;5103569;28;20474;-75
2021/08/23 01:17:20;;;;;;;15.25;12.13;;;14.80;99.90;;;;;;5090563;28;20025;-75
2021/08/23 01:19:52;;;;;;;18.98;13.05;;;14.80;99.90;;;;;;5077157;28;20460;-75
2021/08/23 01:22:18;;;;;;;15.43;12.20;;;14.70;99.90;;;;;;5107268;28;20356;-75
2021/08/23 01:24:48;;;;;;;17.02;13.02;;;14.80;99.90;;;;;;5103711;28;20031;-75
2021/08/23 01:27:14;;;;;;;18.58;12.57;;;14.80;99.90;;;;;;5089107;28;20109;-75
2021/08/23 01:29:52;;;;;;;16.30;12.95;;;14.80;99.90;;;;;;5073292;28;20649;-74
2021/08/23 01:32:22;;;;;;;14.90;12.65;;;14.90;99.90;;;;;;5072923;28;20092;-74
2021/08/23 01:34:49;;;;;;;16.75;12.30;;;14.80;99.90;;;;;;5072860;28;20031;-74
2021/08/23 01:37:16;;;;;;;18.30;12.43;;;14.80;99.90;;;;;;5074218;28;20441;-74
2021/08/23 01:39:42;;;;;;;17.55;13.48;;;14.80;99.90;;;;;;5072966;28;20028;-74
2021/08/23 01:42:08;;;;;;;15.25;12.52;;;14.90;99.90;;;;;;5073991;28;20070;-74
2021/08/23 01:44:33;;;;;;;15.70;11.98;;;14.80;99.90;;;;;;5073748;28;20025;-73
2021/08/23 01:46:59;;;;;;;16.92;13.10;;;14.80;99.90;;;;;;5098302;28;20027;-74
2021/08/23 01:49:24;;;;;;;15.45;12.27;;;14.70;99.90;;;;;;5101700;28;20463;-74
2021/08/23 01:51:50;;;;;;;17.13;12.77;;;14.70;99.90;;;;;;5073673;28;20491;-74
2021/08/23 01:54:16;;;;;;;19.02;13.07;;;14.60;99.90;;;;;;5073883;28;20115;-74
2021/08/23 01:56:42;;;;;;;13.10;11.75;;;14.70;99.90;;;;;;5081136;28;20554;-74
2021/08/23 01:59:08;;;;;;;16.63;13.60;;;14.70;99.90;;;;;;5103149;28;20453;-74
2021/08/23 02:01:34;;;;;;;18.08;13.73;;;14.70;99.90;;;;;;5106254;28;20059;-74
2021/08/23 02:03:59;;;;;;;19.27;13.10;;;14.60;99.90;;;;;;5086126;28;20081;-74
2021/08/23 02:06:25;;;;;;;17.38;14.38;;;14.60;99.90;;;;;;5083352;28;20094;-74
2021/08/23 02:08:52;;;;;;;18.17;14.80;;;14.60;99.90;;;;;;5103166;28;20024;-74
2021/08/23 02:11:18;;;;;;;18.02;14.13;;;14.60;99.90;;;;;;5084992;28;20154;-73
2021/08/23 02:13:44;;;;;;;17.92;14.23;;;14.70;99.90;;;;;;5073908;28;20031;-74
2021/08/23 02:16:09;;;;;;;17.48;13.90;;;14.70;99.90;;;;;;5092463;28;20028;-74
2021/08/23 02:18:35;;;;;;;17.45;13.20;;;14.60;99.90;;;;;;5093833;28;20032;-74
2021/08/23 02:21:01;;;;;;;18.83;14.25;;;14.70;99.90;;;;;;5084725;28;20029;-74
2021/08/23 02:23:26;;;;;;;19.45;13.75;;;14.60;99.90;;;;;;5089568;28;20075;-74
2021/08/23 02:25:54;;;;;;;16.08;13.65;;;14.70;99.90;;;;;;5102965;28;20027;-74
2021/08/23 02:28:20;;;;;;;16.67;13.45;;;14.70;99.90;;;;;;5073075;28;20177;-73
2021/08/23 02:30:45;;;;;;;21.85;14.35;;;14.70;99.90;;;;;;5087998;28;20374;-73
2021/08/23 02:33:11;;;;;;;20.02;15.13;;;14.60;99.90;;;;;;5085451;28;20047;-73
2021/08/23 02:35:36;;;;;;;18.42;14.27;;;14.70;99.90;;;;;;5072842;28;20055;-74
2021/08/23 02:38:02;;;;;;;21.65;13.80;;;14.60;99.90;;;;;;5072981;28;20390;-74
2021/08/23 02:40:27;;;;;;;16.13;13.48;;;14.60;99.90;;;;;;5095478;28;20055;-74
2021/08/23 02:42:53;;;;;;;20.10;14.25;;;14.60;99.90;;;;;;5093155;28;20033;-74
2021/08/23 02:45:18;;;;;;;18.50;14.82;;;14.60;99.90;;;;;;5092758;28;20095;-73
2021/08/23 02:47:44;;;;;;;18.30;13.60;;;14.60;99.90;;;;;;5093327;28;20084;-74
2021/08/23 02:50:10;;;;;;;21.35;14.32;;;14.70;99.90;;;;;;5103977;28;20016;-74
2021/08/23 02:52:36;;;;;;;17.35;14.68;;;14.60;99.90;;;;;;5073020;28;20035;-74
2021/08/23 02:55:04;;;;;;;18.50;13.90;;;14.50;99.90;;;;;;5073061;28;20024;-75
2021/08/23 02:57:30;;;;;;;20.95;14.82;;;14.50;99.90;;;;;;5083551;28;20156;-75
2021/08/23 02:59:55;;;;;;;19.70;14.27;;;14.60;99.90;;;;;;5099015;28;20103;-75
2021/08/23 03:02:21;;;;;;;17.33;14.25;;;14.60;99.90;;;;;;5095271;28;20023;-75
2021/08/23 03:04:46;;;;;;;23.15;15.40;;;14.70;99.90;;;;;;5077180;28;20398;-75
2021/08/23 03:07:12;;;;;;;17.83;14.13;;;14.70;99.90;;;;;;5071111;28;20498;-75
2021/08/23 03:09:37;;;;;;;17.10;14.27;;;14.60;99.90;;;;;;5072421;28;20024;-75
2021/08/23 03:12:04;;;;;;;18.38;14.73;;;14.70;99.90;;;;;;5078160;28;20031;-75
2021/08/23 03:14:29;;;;;;;15.90;12.45;;;14.60;99.90;;;;;;5088030;28;20027;-74
2021/08/23 03:16:55;;;;;;;21.45;14.60;;;14.60;99.90;;;;;;5090830;28;20024;-74
2021/08/23 03:19:20;;;;;;;19.63;15.35;;;14.70;99.90;;;;;;5103464;28;20032;-73
2021/08/23 03:21:46;;;;;;;20.60;15.30;;;14.70;99.90;;;;;;5088434;28;20115;-73
2021/08/23 03:24:12;;;;;;;22.15;16.27;;;14.70;99.90;;;;;;5091100;28;20031;-73
2021/08/23 03:26:39;;;;;;;21.30;15.07;;;14.70;99.90;;;;;;5083846;28;20024;-75
2021/08/23 03:29:04;;;;;;;19.05;14.85;;;14.70;99.90;;;;;;5103820;28;20031;-72
2021/08/23 03:31:30;;;;;;;17.70;14.30;;;14.70;99.90;;;;;;5093411;28;20034;-73
2021/08/23 03:33:56;;;;;;;20.02;15.73;;;14.60;99.90;;;;;;5092665;28;20023;-73
2021/08/23 03:36:22;;;;;;;21.23;15.98;;;14.60;99.90;;;;;;5080101;28;20079;-73
2021/08/23 03:38:48;;;;;;;17.17;15.18;;;14.60;99.90;;;;;;5084240;28;20115;-73
2021/08/23 03:41:14;;;;;;;17.67;14.38;;;14.70;99.90;;;;;;5078453;28;20479;-73
2021/08/23 03:43:40;;;;;;;19.77;14.82;;;14.60;99.90;;;;;;5087668;28;20050;-74
2021/08/23 03:46:06;;;;;;;20.60;15.65;;;14.50;99.90;;;;;;5099822;28;20023;-74
2021/08/23 03:48:31;;;;;;;18.85;15.73;;;14.50;99.90;;;;;;5090702;28;20023;-75
2021/08/23 03:50:57;;;;;;;18.88;14.40;;;14.60;99.90;;;;;;5090965;28;20050;-75
2021/08/23 03:53:23;;;;;;;18.10;14.70;;;14.60;99.90;;;;;;5084339;28;20032;-75
2021/08/23 03:55:48;;;;;;;17.73;14.55;;;14.60;99.90;;;;;;5084041;28;20028;-75
2021/08/23 03:58:14;;;;;;;23.38;15.52;;;14.70;99.90;;;;;;5085242;28;20032;-74
2021/08/23 04:00:39;;;;;;;17.83;14.65;;;14.60;99.90;;;;;;5078633;28;20036;-74
2021/08/23 04:03:05;;;;;;;19.08;15.95;;;14.70;99.90;;;;;;5077082;28;20487;-74
2021/08/23 04:05:31;;;;;;;19.63;14.90;;;14.70;99.90;;;;;;5076662;28;20160;-74
2021/08/23 04:07:56;;;;;;;18.98;15.13;;;14.70;99.90;;;;;;5102475;28;20031;-75
2021/08/23 04:10:22;;;;;;;18.63;15.02;;;14.70;99.90;;;;;;5077398;28;20030;-74
2021/08/23 04:12:47;;;;;;;21.58;16.67;;;14.70;99.90;;;;;;5078721;28;20095;-74
2021/08/23 04:15:13;;;;;;;19.08;15.25;;;14.70;99.90;;;;;;5084339;28;20024;-75
2021/08/23 04:17:38;;;;;;;19.27;16.25;;;14.60;99.90;;;;;;5090581;28;20017;-74
2021/08/23 04:20:05;;;;;;;18.75;15.15;;;14.70;99.90;;;;;;5091203;28;20016;-75
2021/08/23 04:22:31;;;;;;;17.85;14.90;;;14.70;99.90;;;;;;5096022;28;20024;-77
2021/08/23 04:24:56;;;;;;;21.77;16.05;;;14.70;99.90;;;;;;5085182;28;20103;-76
2021/08/23 04:27:22;;;;;;;19.83;14.95;;;14.60;99.90;;;;;;5082770;28;20103;-75
2021/08/23 04:29:47;;;;;;;20.92;16.00;;;14.60;99.90;;;;;;5071555;28;20035;-76
2021/08/23 04:32:13;;;;;;;20.05;15.57;;;14.60;99.90;;;;;;5084645;28;20023;-75
2021/08/23 04:34:38;;;;;;;21.08;15.65;;;14.50;99.90;;;;;;5077881;28;20391;-76
2021/08/23 04:37:04;;;;;;;20.40;16.00;;;14.50;99.90;;;;;;5090384;28;20461;-76
2021/08/23 04:39:31;;;;;;;19.70;16.60;;;14.50;99.90;;;;;;5076755;28;20024;-74
2021/08/23 04:41:57;;;;;;;21.90;16.95;;;14.50;99.90;;;;;;5091556;28;20059;-75
2021/08/23 04:44:23;;;;;;;21.77;17.50;;;14.50;99.90;;;;;;5091323;28;20060;-75
2021/08/23 04:46:50;;;;;;;20.48;17.00;;;14.60;99.90;;;;;;5077298;28;20448;-75
2021/08/23 04:49:18;;;;;;;21.23;17.20;;;14.70;99.90;;;;;;5096701;28;20016;-76
2021/08/23 04:51:44;;;;;;;22.35;17.50;;;14.70;99.90;;;;;;5084066;28;20056;-75
2021/08/23 04:54:09;;;;;;;24.05;17.52;;;14.60;99.90;;;;;;5087356;28;20028;-76
2021/08/23 04:56:35;;;;;;;21.92;17.27;;;14.60;99.90;;;;;;5087242;28;20032;-74
2021/08/23 04:59:00;;;;;;;21.95;17.20;;;14.60;99.90;;;;;;5091073;28;20532;-75
2021/08/23 05:01:26;;;;;;;22.80;17.50;;;14.60;99.90;;;;;;5095149;28;20455;-75
2021/08/23 05:03:52;;;;;;;24.75;18.40;;;14.60;99.90;;;;;;5081425;28;20529;-74
2021/08/23 05:06:17;;;;;;;22.95;17.35;;;14.50;99.90;;;;;;5082060;28;20021;-74
2021/08/23 05:08:43;;;;;;;20.92;16.85;;;14.50;99.90;;;;;;5084340;28;20017;-72
2021/08/23 05:11:08;;;;;;;22.15;18.10;;;14.50;99.90;;;;;;5083195;28;20382;-72
2021/08/23 05:13:35;;;;;;;21.60;17.42;;;14.50;99.90;;;;;;5102863;28;20035;-73
2021/08/23 05:16:00;;;;;;;22.42;16.92;;;14.50;99.90;;;;;;5103102;28;20032;-75
2021/08/23 05:18:26;;;;;;;22.95;18.63;;;14.60;99.90;;;;;;5094704;28;20055;-75
2021/08/23 05:20:51;;;;;;;23.20;18.05;;;14.50;99.90;;;;;;5074706;28;20059;-74
2021/08/23 05:23:17;;;;;;;22.70;18.77;;;14.50;99.90;;;;;;5090168;28;20049;-74
2021/08/23 05:25:43;;;;;;;24.45;19.13;;;14.50;99.90;;;;;;5081794;28;20021;-75
2021/08/23 05:28:08;;;;;;;27.73;19.23;;;14.50;99.90;;;;;;5088274;28;20032;-75
2021/08/23 05:30:34;;;;;;;24.58;18.65;;;14.60;99.90;;;;;;5075340;28;20016;-76
2021/08/23 05:33:00;;;;;;;25.98;19.38;;;14.50;99.90;;;;;;5087974;28;20084;-75
2021/08/23 05:35:26;;;;;;;27.77;20.35;;;14.50;99.90;;;;;;5086979;28;20024;-75
2021/08/23 05:37:52;;;;;;;28.85;19.95;;;14.60;99.90;;;;;;5088448;28;20372;-74
2021/08/23 05:40:19;;;;;;;24.67;19.45;;;14.60;99.90;;;;;;5085812;28;20028;-74
2021/08/23 05:42:45;;;;;;;28.45;18.65;;;14.60;99.90;;;;;;5092917;28;20578;-74
2021/08/23 05:45:11;;;;;;;28.45;20.80;;;14.70;99.90;;;;;;5081176;28;20028;-74
2021/08/23 05:47:37;;;;;;;27.30;19.90;;;14.90;99.90;;;;;;5076185;28;20021;-74
2021/08/23 05:50:04;;;;;;;25.05;19.23;;;14.70;99.90;;;;;;5098265;28;20020;-74
2021/08/23 05:52:29;;;;;;;27.38;18.88;;;14.60;99.90;;;;;;5086312;28;20820;-73
2021/08/23 05:54:55;;;;;;;27.45;19.58;;;14.60;99.90;;;;;;5086854;28;20051;-72
2021/08/23 05:57:23;;;;;;;27.98;19.80;;;14.60;99.90;;;;;;5086750;28;20028;-72
2021/08/23 05:59:49;;;;;;;25.63;19.42;;;14.60;99.90;;;;;;5096495;28;20026;-73
2021/08/23 06:02:14;;;;;;;28.73;20.40;;;14.70;99.90;;;;;;5079239;28;20024;-74
2021/08/23 06:04:40;;;;;;;27.45;19.70;;;14.60;99.90;;;;;;5093851;28;20028;-73
2021/08/23 06:07:07;;;;;;;26.50;20.17;;;14.60;99.90;;;;;;5080165;28;20020;-74
2021/08/23 06:09:33;;;;;;;26.55;20.17;;;14.70;99.90;;;;;;5079806;28;20109;-73
2021/08/23 06:11:59;;;;;;;29.83;21.08;;;14.80;99.90;;;;;;5087092;28;20090;-74
2021/08/23 06:14:24;;;;;;;30.48;21.58;;;14.90;99.90;;;;;;5086180;28;20493;-73
2021/08/23 06:16:50;;;;;;;30.48;20.95;;;14.70;99.90;;;;;;5080304;28;20486;-73
2021/08/23 06:19:15;;;;;;;28.80;20.63;;;14.80;99.90;;;;;;5093720;28;20081;-73
2021/08/23 06:21:41;;;;;;;31.15;21.27;;;14.80;99.90;;;;;;5072343;28;20082;-74
2021/08/23 06:24:06;;;;;;;28.88;20.15;;;14.70;99.90;;;;;;5086500;28;20464;-73
2021/08/23 06:26:32;;;;;;;29.45;20.23;;;14.70;99.90;;;;;;5093486;28;20482;-73
2021/08/23 06:28:57;;;;;;;31.88;21.80;;;14.80;99.90;;;;;;5080591;28;20650;-73
2021/08/23 06:31:23;;;;;;;30.05;20.85;;;14.70;99.90;;;;;;5086724;28;20105;-74
2021/08/23 06:33:49;;;;;;;26.02;19.30;;;14.70;99.90;;;;;;5086658;28;20024;-73
2021/08/23 06:36:15;;;;;;;26.95;20.42;;;14.70;99.90;;;;;;5079796;28;20487;-73
2021/08/23 06:38:41;;;;;;;26.02;19.58;;;14.80;99.90;;;;;;5080094;28;20020;-73
2021/08/23 06:41:06;;;;;;;27.30;20.90;;;14.70;99.90;;;;;;5085492;28;20040;-74
2021/08/23 06:43:32;;;;;;;30.80;21.45;;;14.70;99.90;;;;;;5082547;28;20032;-74
2021/08/23 06:45:57;;;;;;;32.13;21.77;;;14.70;99.90;;;;;;5094720;28;20020;-74
2021/08/23 06:48:23;;;;;;;29.83;21.48;;;14.70;99.90;;;;;;5083257;28;20020;-74
2021/08/23 06:50:48;;;;;;;30.42;21.92;;;14.80;99.90;;;;;;5086963;28;20028;-74
2021/08/23 06:53:14;;;;;;;29.48;22.08;;;14.80;99.90;;;;;;5086836;28;20035;-74
2021/08/23 06:55:40;;;;;;;32.75;22.60;;;14.70;99.90;;;;;;5079264;28;20052;-74
2021/08/23 06:58:05;;;;;;;31.48;21.80;;;14.80;99.90;;;;;;5093155;28;20073;-74
2021/08/23 07:00:31;;;;;;;29.77;21.38;;;14.80;99.90;;;;;;5079208;28;20081;-74
2021/08/23 07:02:56;;;;;;;30.13;21.67;;;14.80;99.90;;;;;;5092840;28;20620;-73
2021/08/23 07:05:22;;;;;;;31.80;22.80;;;14.80;99.90;;;;;;5078797;28;20028;-74
2021/08/23 07:07:49;;;;;;;27.75;21.20;;;14.80;99.90;;;;;;5080540;28;20028;-74
2021/08/23 07:10:14;;;;;;;31.65;22.80;;;14.80;99.90;;;;;;5086101;28;20052;-73
2021/08/23 07:12:42;;;;;;;30.70;22.90;;;14.70;99.90;;;;;;5084872;28;20061;-74
2021/08/23 07:15:09;;;;;;;31.35;22.63;;;14.80;99.90;;;;;;5084662;28;20024;-73
2021/08/23 07:17:35;;;;;;;32.85;22.92;;;14.90;99.90;;;;;;5092743;28;20110;-75
2021/08/23 07:20:00;;;;;;;32.10;22.10;;;14.80;99.90;;;;;;5078110;28;20020;-74
2021/08/23 07:22:26;;;;;;;30.75;21.58;;;14.80;99.90;;;;;;5083887;28;20054;-73
2021/08/23 07:24:52;;;;;;;28.13;21.67;;;14.80;99.90;;;;;;5085859;28;20056;-74
2021/08/23 07:27:18;;;;;;;29.92;21.10;;;14.80;99.90;;;;;;5084818;28;20024;-74
2021/08/23 07:29:44;;;;;;;29.20;21.50;;;14.80;99.90;;;;;;5079045;28;20027;-71
2021/08/23 07:32:09;;;;;;;31.13;21.92;;;15.00;99.90;;;;;;5086088;28;20024;-73
2021/08/23 07:34:35;;;;;;;33.15;21.77;;;15.00;99.90;;;;;;5091636;28;20042;-73
2021/08/23 07:37:01;;;;;;;27.13;21.70;;;15.10;99.90;;;;;;5079455;28;20036;-73
2021/08/23 07:39:26;;;;;;;27.48;20.10;;;15.10;99.90;;;;;;5085596;28;20056;-74
2021/08/23 07:41:52;;;;;;;30.15;21.90;;;15.20;99.90;;;;;;5084431;28;20064;-74
2021/08/23 07:44:17;;;;;;;29.98;22.08;;;15.20;99.90;;;;;;5086577;28;20035;-73
2021/08/23 07:46:43;;;;;;;29.25;21.50;;;15.20;99.90;;;;;;5089996;28;20111;-74
2021/08/23 07:49:09;;;;;;;28.10;20.50;;;15.10;99.90;;;;;;5088519;28;20082;-74
2021/08/23 07:51:34;;;;;;;29.20;21.35;;;15.30;99.90;;;;;;5085572;28;20024;-74
2021/08/23 07:54:00;;;;;;;30.52;21.52;;;15.30;99.90;;;;;;5079178;28;20051;-74
2021/08/23 07:56:26;;;;;;;27.05;21.75;;;15.30;99.90;;;;;;5079845;28;20505;-74
2021/08/23 07:58:51;;;;;;;31.77;21.77;;;15.20;99.90;;;;;;5084322;28;20077;-73
2021/08/23 08:01:17;;;;;;;30.00;21.67;;;15.20;99.90;;;;;;5083997;28;20107;-74
2021/08/23 08:03:42;;;;;;;29.23;22.35;;;15.20;99.90;;;;;;5086580;28;20028;-73
2021/08/23 08:06:08;;;;;;;28.58;21.15;;;15.30;99.90;;;;;;5071708;28;20036;-74
2021/08/23 08:08:33;;;;;;;33.22;22.05;;;15.30;99.90;;;;;;5089259;28;20066;-73
2021/08/23 08:10:59;;;;;;;29.92;20.23;;;15.40;99.90;;;;;;5092154;28;20024;-74
2021/08/23 08:13:25;;;;;;;25.40;19.55;;;15.50;99.90;;;;;;5076834;28;20028;-74
2021/08/23 08:15:52;;;;;;;24.13;18.73;;;15.60;99.90;;;;;;5091904;28;20039;-74
2021/08/23 08:18:18;;;;;;;25.77;18.55;;;15.70;99.90;;;;;;5077058;28;20078;-74
2021/08/23 08:20:45;;;;;;;25.45;20.63;;;15.80;99.90;;;;;;5079722;28;20021;-74
2021/08/23 08:23:10;;;;;;;27.17;20.50;;;15.80;99.90;;;;;;5085147;28;20056;-73
2021/08/23 08:25:36;;;;;;;25.23;18.83;;;15.80;99.90;;;;;;5084255;28;20068;-74
2021/08/23 08:28:02;;;;;;;21.73;17.55;;;15.80;99.90;;;;;;5106039;28;20020;-74
2021/08/23 08:30:27;;;;;;;31.85;18.75;;;15.80;99.90;;;;;;5084097;28;20028;-74
2021/08/23 08:32:53;;;;;;;23.02;17.88;;;15.70;99.90;;;;;;5088992;28;20029;-74
2021/08/23 08:35:19;;;;;;;22.92;16.48;;;15.70;99.90;;;;;;5087371;28;20059;-74
2021/08/23 08:37:44;;;;;;;24.45;17.95;;;15.70;99.90;;;;;;5080652;28;20389;-74
2021/08/23 08:40:11;;;;;;;24.45;17.92;;;15.70;99.90;;;;;;5095893;28;20371;-73
2021/08/23 08:42:38;;;;;;;24.02;18.35;;;15.70;99.90;;;;;;5082019;28;20020;-73
2021/08/23 08:45:04;;;;;;;24.02;19.40;;;15.60;99.90;;;;;;5083459;28;20016;-74
2021/08/23 08:47:30;;;;;;;25.42;18.92;;;15.60;99.90;;;;;;5087666;28;20435;-73
2021/08/23 08:49:59;;;;;;;23.80;17.88;;;15.70;99.90;;;;;;5087502;28;20393;-74
2021/08/23 08:52:25;;;;;;;25.23;19.55;;;15.90;99.90;;;;;;5075764;28;20025;-73
2021/08/23 08:54:51;;;;;;;22.83;17.70;;;15.90;99.90;;;;;;5087876;28;20035;-74
2021/08/23 08:57:16;;;;;;;22.20;18.40;;;15.90;99.90;;;;;;5081750;28;20486;-74
2021/08/23 08:59:42;;;;;;;22.90;18.17;;;15.90;99.90;;;;;;5082955;28;20614;-74
2021/08/23 09:02:08;;;;;;;22.27;17.90;;;16.00;99.90;;;;;;5075146;28;20032;-74
2021/08/23 09:04:38;;;;;;;20.48;17.48;;;16.00;99.90;;;;;;5074863;28;20028;-74
2021/08/23 09:07:06;;;;;;;29.13;18.08;;;16.00;99.90;;;;;;5090596;28;20021;-74
2021/08/23 09:09:32;;;;;;;22.00;17.55;;;15.90;99.90;;;;;;5081926;28;20059;-74
2021/08/23 09:12:07;;;;;;;19.30;16.85;;;16.10;99.90;;;;;;5081529;28;20077;-74
2021/08/23 09:14:37;;;;;;;18.53;16.13;;;16.20;99.90;;;;;;5093650;28;20514;-74
2021/08/23 09:17:12;;;;;;;21.27;17.00;;;15.90;99.90;;;;;;5095037;28;20032;-74
2021/08/23 09:19:40;;;;;;;17.98;14.95;;;16.40;99.90;;;;;;5082771;28;20085;-75
2021/08/23 09:22:08;;;;;;;18.05;15.50;;;16.20;99.90;;;;;;5084767;28;20391;-74
2021/08/23 09:24:36;;;;;;;18.00;15.02;;;16.30;99.90;;;;;;5078131;28;20086;-74
2021/08/23 09:27:08;;;;;;;18.88;15.18;;;16.30;99.90;;;;;;5095038;28;20474;-74
2021/08/23 09:29:59;;;;;;;16.42;13.77;;;16.50;99.90;;;;;;5081293;28;20498;-74
2021/08/23 09:32:45;;;;;;;17.80;13.07;;;16.30;99.90;;;;;;5080265;28;20031;-73
2021/08/23 09:35:11;;;;;;;16.15;13.50;;;16.30;99.90;;;;;;5082579;28;20100;-76
2021/08/23 09:37:37;;;;;;;16.65;13.85;;;16.50;99.90;;;;;;5086556;28;20059;-74
2021/08/23 09:40:13;;;;;;;14.73;13.18;;;16.60;99.90;;;;;;5085084;28;20028;-74
2021/08/23 09:42:39;;;;;;;;;;;16.60;99.90;;;;;;5088632;28;20119;-73
2021/08/23 09:45:18;;;;;;;14.90;13.32;;;16.70;99.90;;;;;;5077298;28;19962;-74
2021/08/23 09:47:43;;;;;;;18.02;13.43;;;16.70;99.90;;;;;;5092709;28;20114;-74
2021/08/23 09:50:16;;;;;;;14.52;12.73;;;16.80;99.90;;;;;;5093834;28;20059;-74
2021/08/23 09:52:42;;;;;;;16.85;12.10;;;16.90;99.90;;;;;;5081865;28;20020;-75
2021/08/23 09:55:09;;;;;;;13.60;12.20;;;17.10;99.90;;;;;;5079773;28;20490;-74
2021/08/23 09:57:38;;;;;;;13.77;12.15;;;17.40;99.90;;;;;;5085217;28;20021;-73
2021/08/23 10:00:13;;;;;;;14.20;11.57;;;17.50;99.90;;;;;;5086566;28;20157;-74
2021/08/23 10:02:47;;;;;;;12.20;10.65;;;17.40;99.90;;;;;;5083210;28;20024;-74
2021/08/23 10:05:20;;;;;;;13.48;10.63;;;17.50;99.90;;;;;;5079382;28;20028;-73
2021/08/23 10:07:46;;;;;;;14.57;11.43;;;17.50;99.90;;;;;;5081867;28;20047;-74
2021/08/23 10:10:13;;;;;;;13.35;11.00;;;17.40;99.90;;;;;;5087780;28;20024;-73
2021/08/23 10:12:38;;;;;;;13.18;11.10;;;17.20;99.90;;;;;;5087024;28;20035;-74
2021/08/23 10:15:06;;;;;;;12.55;11.27;;;17.40;99.90;;;;;;5086463;28;20020;-74
2021/08/23 10:17:37;;;;;;;12.93;11.45;;;17.10;99.90;;;;;;5080838;28;20456;-74
2021/08/23 10:20:09;;;;;;;14.50;11.68;;;17.20;99.90;;;;;;5096254;28;20093;-74
2021/08/23 10:22:36;;;;;;;13.90;11.70;;;17.20;99.90;;;;;;5091890;28;20024;-73
2021/08/23 10:25:03;;;;;;;12.35;11.02;;;17.20;99.90;;;;;;5092428;28;20032;-73
2021/08/23 10:27:32;;;;;;;13.60;11.70;;;17.10;99.90;;;;;;5087108;28;20021;-73
2021/08/23 10:29:58;;;;;;;13.32;11.15;;;17.00;99.90;;;;;;5085242;28;20046;-74
2021/08/23 10:32:36;;;;;;;12.35;11.07;;;17.10;99.90;;;;;;5084896;28;20012;-74
2021/08/23 10:35:22;;;;;;;13.13;11.23;;;17.20;99.90;;;;;;5084359;28;20429;-74
2021/08/23 10:37:50;;;;;;;12.75;11.45;;;17.20;99.90;;;;;;5085252;28;20052;-74
2021/08/23 10:40:16;;;;;;;12.23;10.93;;;17.20;99.90;;;;;;5080290;28;20028;-74
2021/08/23 10:42:47;;;;;;;13.40;12.00;;;17.10;99.90;;;;;;5092158;28;20394;-74
2021/08/23 10:45:15;;;;;;;14.60;12.13;;;17.00;99.90;;;;;;5086356;28;20024;-74
2021/08/23 10:47:45;;;;;;;14.38;11.90;;;17.00;99.90;;;;;;5086695;28;20047;-74
2021/08/23 10:50:25;;;;;;;13.90;12.20;;;16.90;99.90;;;;;;5087910;28;20031;-74
2021/08/23 10:52:51;;;;;;;18.45;13.35;;;16.90;99.90;;;;;;5085365;28;20070;-74
2021/08/23 10:55:26;;;;;;;15.23;12.90;;;16.90;99.90;;;;;;5089495;28;20044;-74
2021/08/23 10:58:02;;;;;;;14.98;12.63;;;16.90;99.90;;;;;;5086653;28;20486;-74
2021/08/23 11:00:43;;;;;;;16.88;13.70;;;16.90;99.90;;;;;;5087707;28;20130;-74
2021/08/23 11:03:09;;;;;;;14.70;13.13;;;16.90;99.90;;;;;;5079356;28;20024;-74
2021/08/23 11:05:36;;;;;;;18.20;14.60;;;16.90;99.90;;;;;;5076050;28;20024;-74
2021/08/23 11:08:08;;;;;;;17.15;15.07;;;16.90;99.90;;;;;;5087023;28;20020;-73
2021/08/23 11:10:36;;;;;;;19.33;15.07;;;16.90;99.90;;;;;;5085401;28;20020;-74
2021/08/23 11:13:15;;;;;;;17.08;15.23;;;16.90;99.90;;;;;;5089619;28;20027;-73
2021/08/23 11:15:41;;;;;;;20.15;15.98;;;16.90;99.90;;;;;;5087027;28;20024;-73
2021/08/23 11:18:18;;;;;;;21.25;17.67;;;16.80;99.90;;;;;;5085212;28;20047;-74
2021/08/23 11:20:49;;;;;;;21.33;18.58;;;16.80;99.90;;;;;;5096281;28;20015;-74
2021/08/23 11:23:24;;;;;;;22.30;18.15;;;16.80;99.90;;;;;;5084539;28;20082;-74
2021/08/23 11:25:51;;;;;;;21.23;18.38;;;16.60;99.90;;;;;;5091252;28;20059;-74
2021/08/23 11:28:22;;;;;;;23.10;19.00;;;16.70;99.90;;;;;;5086125;28;20486;-74
2021/08/23 11:30:50;;;;;;;23.33;19.33;;;16.60;99.90;;;;;;5089752;28;20387;-75
2021/08/23 11:33:36;;;;;;;25.20;20.50;;;16.50;99.90;;;;;;5083086;28;20386;-74
2021/08/23 11:36:22;;;;;;;24.48;19.50;;;16.50;99.90;;;;;;5086937;28;20120;-74
2021/08/23 11:38:48;;;;;;;22.73;18.02;;;16.60;99.90;;;;;;5091834;28;20119;-73
2021/08/23 11:41:14;;;;;;;27.63;18.77;;;16.50;99.90;;;;;;5078077;28;20036;-73
2021/08/23 11:43:40;;;;;;;23.00;18.40;;;16.60;99.90;;;;;;5092177;28;20085;-75
2021/08/23 11:46:05;;;;;;;20.23;16.83;;;16.70;99.90;;;;;;5081792;28;20051;-74
2021/08/23 11:48:32;;;;;;;20.52;16.92;;;16.90;99.90;;;;;;5083144;28;20028;-74
2021/08/23 11:50:58;;;;;;;18.35;15.45;;;17.00;99.90;;;;;;5086254;28;20020;-73
2021/08/23 11:53:24;;;;;;;18.27;14.32;;;17.00;99.90;;;;;;5080409;28;20028;-73
2021/08/23 11:55:51;;;;;;;16.23;13.05;;;16.90;99.90;;;;;;5085484;28;20020;-73
2021/08/23 11:58:21;;;;;;;14.93;12.80;;;16.90;99.90;;;;;;5087114;28;20024;-73
2021/08/23 12:01:01;;;;;;;15.07;13.15;;;16.80;99.90;;;;;;5083896;28;20486;-73
2021/08/23 12:03:29;;;;;;;15.38;13.57;;;16.90;99.90;;;;;;5071636;28;20538;-73
2021/08/23 12:06:11;;;;;;;17.40;12.88;;;17.00;99.90;;;;;;5081765;28;20104;-73
2021/08/23 12:08:40;;;;;;;14.57;12.88;;;16.90;99.90;;;;;;5086103;28;20024;-73
2021/08/23 12:11:18;;;;;;;16.10;11.82;;;16.80;99.90;;;;;;5075066;28;20029;-74
2021/08/23 12:13:46;;;;;;;13.85;11.82;;;16.80;99.90;;;;;;5072152;28;20047;-74
2021/08/23 12:16:14;;;;;;;11.23;10.02;;;16.80;99.90;;;;;;5091811;28;20028;-73
2021/08/23 12:18:51;;;;;;;13.45;11.35;;;16.80;99.90;;;;;;5091955;28;20028;-74
2021/08/23 12:21:27;;;;;;;13.98;12.15;;;16.80;99.90;;;;;;5077760;28;20059;-74
2021/08/23 12:24:09;;;;;;;13.13;10.75;;;16.80;99.90;;;;;;5095248;28;20055;-74
2021/08/23 12:26:40;;;;;;;12.13;10.82;;;16.60;99.90;;;;;;5084765;28;20024;-73
2021/08/23 12:29:18;;;;;;;11.63;10.32;;;16.90;99.90;;;;;;5088857;28;20620;-73